Baker, Illinois
Current Conditions -  °F | °C
As of 2:52 AM on Monday 22 Dec 2014 (Local Time) from KARR Reporting Station
Haze Haze  
Wind Chill: 26°   Ceiling: 4700
Heat Index: 32°   Visibility: 5mi
Dew Point: 27°   Wind: 7mph
Humidity: 82%   Direction: 140°SE
Pressure: 29.96"   Gusts: NA
Location:  41.5827°N, 88.7731°W
Report Text: KARR 220852Z AUTO 14006KT 5SM HZ BKN047 OVC055 00/M03 A2996 RMK AO2 SLP153 T00001028 56010
Loading
Personal Weather Stations






























Interactive Weather Map New forecast layout! Learn more

10-Day Weather Forecast

Advertisements
Track Severe Weather on mobile